createdAt,value
2016-02-20T00:00:01.230Z,2.65
2016-02-20T00:01:01.233Z,2.65
2016-02-20T00:02:01.220Z,2.75
2016-02-20T00:03:01.285Z,2.74
2016-02-20T00:04:01.256Z,2.72
2016-02-20T00:05:01.059Z,2.79
2016-02-20T00:06:01.213Z,2.72
2016-02-20T00:07:01.231Z,2.72
2016-02-20T00:08:01.202Z,2.83
2016-02-20T00:09:01.174Z,2.8
2016-02-20T00:10:01.177Z,2.82
2016-02-20T00:11:01.180Z,2.68
2016-02-20T00:12:01.166Z,2.75
2016-02-20T00:13:01.169Z,2.79
2016-02-20T00:14:01.156Z,2.79
2016-02-20T00:15:01.158Z,2.8
2016-02-20T00:16:01.146Z,2.71
2016-02-20T00:17:01.149Z,2.8
2016-02-20T00:18:01.152Z,2.75
2016-02-20T00:19:01.138Z,2.77
2016-02-20T00:20:01.141Z,2.74
2016-02-20T00:21:01.144Z,2.79
2016-02-20T00:22:01.116Z,2.74
2016-02-20T00:23:01.180Z,2.67
2016-02-20T00:24:01.105Z,2.69
2016-02-20T00:25:01.092Z,2.71
2016-02-20T00:26:01.110Z,2.75
2016-02-20T00:27:01.097Z,2.71
2016-02-20T00:28:01.085Z,2.57
2016-02-20T00:29:01.103Z,2.72
2016-02-20T00:30:01.090Z,2.71
2016-02-20T00:31:01.082Z,2.71
2016-02-20T00:32:01.117Z,2.69
2016-02-20T00:33:01.056Z,2.75
2016-02-20T00:34:01.075Z,2.77
2016-02-20T00:35:01.109Z,2.68
2016-02-20T00:36:01.064Z,2.68
2016-02-20T00:37:01.050Z,2.65
2016-02-20T00:38:01.038Z,2.65
2016-02-20T00:39:01.056Z,2.62
2016-02-20T00:40:01.059Z,2.64
2016-02-20T00:41:01.015Z,2.6
2016-02-20T00:42:01.018Z,2.61
2016-02-20T00:43:01.021Z,2.56
2016-02-20T00:44:01.008Z,2.49
2016-02-20T00:45:01.026Z,2.53
2016-02-20T00:46:01.013Z,2.51
2016-02-20T00:47:00.999Z,2.5
2016-02-20T00:48:01.003Z,2.42
2016-02-20T00:49:01.005Z,2.36
2016-02-20T00:50:00.976Z,2.38
2016-02-20T00:51:01.010Z,2.39
2016-02-20T00:52:00.966Z,2.32
2016-02-20T00:53:00.953Z,2.32
2016-02-20T00:54:00.971Z,2.28
2016-02-20T00:55:00.975Z,2.29
2016-02-20T00:56:00.946Z,2.29
2016-02-20T00:57:00.949Z,2.25
2016-02-20T00:58:00.936Z,2.2
2016-02-20T00:59:00.954Z,2.24
2016-02-20T01:00:00.925Z,2.2
2016-02-20T01:01:00.912Z,2.1
2016-02-20T01:02:00.931Z,2.11
2016-02-20T01:03:00.902Z,2.22
2016-02-20T01:04:00.921Z,2.04
2016-02-20T01:05:00.892Z,2.2
2016-02-20T01:06:00.910Z,2.11
2016-02-20T01:07:00.726Z,2.11
2016-02-20T01:08:00.884Z,2.13
2016-02-20T01:09:00.871Z,2.07
2016-02-20T01:10:00.890Z,2.15
2016-02-20T01:11:00.861Z,2.08
2016-02-20T01:12:00.849Z,2.07
2016-02-20T01:13:00.883Z,2.02
2016-02-20T01:14:00.870Z,2.08
2016-02-20T01:15:00.872Z,2.08
2016-02-20T01:16:00.874Z,1.97
2016-02-20T01:17:00.830Z,2.02
2016-02-20T01:18:00.850Z,1.99
2016-02-20T01:19:00.836Z,2.02
2016-02-20T01:20:00.838Z,1.99
2016-02-20T01:21:00.862Z,1.91
2016-02-20T01:22:00.787Z,1.94
2016-02-20T01:23:00.790Z,1.85
2016-02-20T01:24:00.793Z,1.87
2016-02-20T01:25:00.779Z,1.81
2016-02-20T01:26:00.781Z,1.84
2016-02-20T01:27:00.800Z,1.85
2016-02-20T01:28:00.787Z,1.87
2016-02-20T01:29:00.774Z,1.77
2016-02-20T01:30:00.776Z,1.85
2016-02-20T01:31:00.764Z,1.77
2016-02-20T01:32:00.767Z,1.78
2016-02-20T01:33:00.738Z,1.7
2016-02-20T01:34:00.741Z,1.74
2016-02-20T01:35:00.743Z,1.74
2016-02-20T01:36:00.730Z,1.81
2016-02-20T01:37:00.717Z,1.81
2016-02-20T01:38:00.705Z,1.78
2016-02-20T01:39:00.692Z,1.74
2016-02-20T01:40:00.695Z,1.74
2016-02-20T01:41:00.697Z,1.8
2016-02-20T01:42:00.716Z,1.8
2016-02-20T01:43:00.686Z,1.78
2016-02-20T01:44:00.674Z,1.63
2016-02-20T01:45:00.691Z,1.63
2016-02-20T01:46:00.507Z,1.67
2016-02-20T01:47:00.651Z,1.56
2016-02-20T01:48:00.654Z,1.62
2016-02-20T01:49:00.656Z,1.6
2016-02-20T01:50:00.659Z,1.55
2016-02-20T01:51:00.646Z,1.56
2016-02-20T01:52:00.632Z,1.59
2016-02-20T01:53:00.635Z,1.62
2016-02-20T01:54:00.607Z,1.56
2016-02-20T01:55:00.610Z,1.6
2016-02-20T01:56:00.612Z,1.55
2016-02-20T01:57:00.599Z,1.55
2016-02-20T01:58:00.602Z,1.59
2016-02-20T01:59:00.604Z,1.58
2016-02-20T02:00:00.576Z,1.56
2016-02-20T02:01:00.578Z,1.71
2016-02-20T02:02:00.582Z,1.68
2016-02-20T02:03:00.569Z,1.56
2016-02-20T02:04:00.556Z,1.62
2016-02-20T02:05:00.556Z,1.53
2016-02-20T02:06:00.559Z,1.42
2016-02-20T02:07:00.545Z,1.44
2016-02-20T02:08:00.532Z,1.45
2016-02-20T02:09:00.566Z,1.44
2016-02-20T02:10:00.522Z,1.5
2016-02-20T02:11:00.556Z,1.5
2016-02-20T02:12:00.528Z,1.53
2016-02-20T02:13:00.514Z,1.62
2016-02-20T02:14:00.502Z,1.62
2016-02-20T02:15:00.505Z,1.68
2016-02-20T02:16:00.491Z,1.59
2016-02-20T02:17:00.479Z,1.66
2016-02-20T02:18:00.496Z,1.62
2016-02-20T02:19:00.465Z,1.62
2016-02-20T02:20:00.452Z,1.76
2016-02-20T02:21:00.455Z,1.78
2016-02-20T02:22:00.458Z,1.76
2016-02-20T02:23:00.445Z,1.74
2016-02-20T02:24:00.432Z,1.76
2016-02-20T02:25:00.451Z,1.76
2016-02-20T02:26:00.453Z,1.73
2016-02-20T02:27:00.424Z,1.84
2016-02-20T02:28:00.412Z,1.85
2016-02-20T02:29:00.398Z,1.78
2016-02-20T02:30:00.401Z,1.89
2016-02-20T02:31:00.404Z,1.89
2016-02-20T02:32:00.406Z,1.84
2016-02-20T02:33:00.378Z,1.91
2016-02-20T02:34:00.381Z,1.88
2016-02-20T02:35:00.368Z,1.97
2016-02-20T02:36:00.370Z,2.07
2016-02-20T02:37:00.358Z,1.91
2016-02-20T02:38:00.360Z,2
2016-02-20T02:39:00.363Z,1.99
2016-02-20T02:40:00.350Z,1.99
2016-02-20T02:41:00.352Z,2.02
2016-02-20T02:42:00.324Z,1.99
2016-02-20T02:43:00.342Z,2.08
2016-02-20T02:44:00.314Z,2
2016-02-20T02:45:00.317Z,2.07
2016-02-20T02:46:00.319Z,2.07
2016-02-20T02:47:00.322Z,2.07
2016-02-20T02:48:00.293Z,2.08
2016-02-20T02:49:00.312Z,2.08
2016-02-20T02:50:00.299Z,2.1
2016-02-20T02:51:00.285Z,2.07
2016-02-20T02:52:00.273Z,2.06
2016-02-20T02:53:00.260Z,2.08
2016-02-20T02:54:00.262Z,2.08
2016-02-20T02:55:00.266Z,2.13
2016-02-20T02:56:00.252Z,2.06
2016-02-20T02:57:00.240Z,2.02
2016-02-20T02:58:00.243Z,2.02
2016-02-20T02:59:00.229Z,1.99
2016-02-20T03:00:00.248Z,2.02
2016-02-20T03:01:00.220Z,1.92
2016-02-20T03:02:00.223Z,1.97
2016-02-20T03:03:00.225Z,1.92
2016-02-20T03:04:00.211Z,1.94
2016-02-20T03:05:00.198Z,1.84
2016-02-20T03:06:00.186Z,1.94
2016-02-20T03:07:00.188Z,1.85
2016-02-20T03:08:00.192Z,1.84
2016-02-20T03:09:00.178Z,1.88
2016-02-20T03:10:00.165Z,1.8
2016-02-20T03:11:00.183Z,1.74
2016-02-20T03:12:00.170Z,1.76
2016-02-20T03:13:00.158Z,1.77
2016-02-20T03:14:00.144Z,1.76
2016-02-20T03:15:00.148Z,1.73
2016-02-20T03:16:00.149Z,1.78
2016-02-20T03:17:00.138Z,1.77
2016-02-20T03:18:00.124Z,1.78
2016-02-20T03:19:00.111Z,1.73
2016-02-20T03:20:00.113Z,1.76
2016-02-20T03:21:00.366Z,1.74
2016-02-20T03:22:00.104Z,1.77
2016-02-20T03:23:00.121Z,1.62
2016-02-20T03:24:00.109Z,1.63
2016-02-20T03:25:00.081Z,1.74
2016-02-20T03:26:00.099Z,1.62
2016-02-20T03:27:00.071Z,1.73
2016-02-20T03:28:00.089Z,1.76
2016-02-20T03:29:00.076Z,1.76
2016-02-20T03:30:00.093Z,1.76
2016-02-20T03:31:00.066Z,1.68
2016-02-20T03:32:00.052Z,1.71
2016-02-20T03:33:00.055Z,1.73
2016-02-20T03:34:00.042Z,1.63
2016-02-20T03:35:00.029Z,1.74
2016-02-20T03:36:00.017Z,1.67
2016-02-20T03:37:00.020Z,1.7
2016-02-20T03:38:00.022Z,1.67
2016-02-20T03:39:00.009Z,1.76
2016-02-20T03:40:00.011Z,1.63
2016-02-20T03:41:00.015Z,1.63
2016-02-20T03:41:59.986Z,1.63
2016-02-20T03:43:00.004Z,1.67
2016-02-20T03:43:59.991Z,1.63
2016-02-20T03:44:59.978Z,1.68
2016-02-20T03:45:59.966Z,1.63
2016-02-20T03:46:59.999Z,1.66
2016-02-20T03:47:59.971Z,1.58
2016-02-20T03:48:59.989Z,1.6
2016-02-20T03:49:59.961Z,1.56
2016-02-20T03:51:00.463Z,1.62
2016-02-20T03:51:59.949Z,1.58
2016-02-20T03:52:59.938Z,1.48
2016-02-20T03:53:59.940Z,1.53
2016-02-20T03:54:59.927Z,1.59
2016-02-20T03:55:59.914Z,1.53
2016-02-20T03:56:59.932Z,1.58
2016-02-20T03:57:59.919Z,1.59
2016-02-20T03:58:59.921Z,1.66
2016-02-20T03:59:59.893Z,1.68
2016-02-20T04:00:59.881Z,1.76
2016-02-20T04:01:59.915Z,1.8
2016-02-20T04:02:59.887Z,1.74
2016-02-20T04:03:59.889Z,1.84
2016-02-20T04:04:59.876Z,1.74
2016-02-20T04:05:59.862Z,1.74
2016-02-20T04:06:59.881Z,1.77
2016-02-20T04:07:59.853Z,1.74
2016-02-20T04:08:59.856Z,1.71
2016-02-20T04:09:59.843Z,1.77
2016-02-20T04:10:59.845Z,1.74
2016-02-20T04:11:59.848Z,1.91
2016-02-20T04:12:59.819Z,1.78
2016-02-20T04:13:59.837Z,1.74
2016-02-20T04:14:59.825Z,1.88
2016-02-20T04:15:59.827Z,1.81
2016-02-20T04:16:59.799Z,1.89
2016-02-20T04:17:59.802Z,1.8
2016-02-20T04:18:59.805Z,1.88
2016-02-20T04:19:59.791Z,1.84
2016-02-20T04:20:59.778Z,1.85
2016-02-20T04:21:59.766Z,1.91
2016-02-20T04:22:59.768Z,1.87
2016-02-20T04:23:59.755Z,1.94
2016-02-20T04:24:59.758Z,1.91
2016-02-20T04:25:59.776Z,1.91
2016-02-20T04:26:59.763Z,1.94
2016-02-20T04:27:59.749Z,2.04
2016-02-20T04:28:59.738Z,1.94
2016-02-20T04:29:59.740Z,1.99
2016-02-20T04:30:59.727Z,2
2016-02-20T04:31:59.714Z,1.92
2016-02-20T04:32:59.717Z,1.92
2016-02-20T04:33:59.720Z,1.92
2016-02-20T04:34:59.723Z,1.95
2016-02-20T04:35:59.693Z,1.92
2016-02-20T04:36:59.696Z,2.04
2016-02-20T04:37:59.698Z,2
2016-02-20T04:38:59.702Z,2
2016-02-20T04:39:59.689Z,2.02
2016-02-20T04:40:59.676Z,2.13
2016-02-20T04:41:59.663Z,2.11
2016-02-20T04:42:59.665Z,2.1
2016-02-20T04:43:59.668Z,2.15
2016-02-20T04:44:59.671Z,2.2
2016-02-20T04:45:59.643Z,2.26
2016-02-20T04:46:59.645Z,2.28
2016-02-20T04:47:59.632Z,2.24
2016-02-20T04:48:59.636Z,2.32
2016-02-20T04:49:59.638Z,2.44
2016-02-20T04:50:59.641Z,2.38
2016-02-20T04:51:59.628Z,2.39
2016-02-20T04:52:59.599Z,2.53
2016-02-20T04:53:59.617Z,2.5
2016-02-20T04:54:59.619Z,2.54
2016-02-20T04:55:59.591Z,2.6
2016-02-20T04:56:59.594Z,2.6
2016-02-20T04:57:59.597Z,2.64
2016-02-20T04:58:59.583Z,2.64
2016-02-20T04:59:59.602Z,2.56
2016-02-20T05:00:59.558Z,2.67
2016-02-20T05:01:59.561Z,2.64
2016-02-20T05:02:59.563Z,2.57
2016-02-20T05:03:59.551Z,2.61
2016-02-20T05:04:59.554Z,2.64
2016-02-20T05:05:59.556Z,2.67
2016-02-20T05:06:59.559Z,2.71
2016-02-20T05:07:59.545Z,2.8
2016-02-20T05:08:59.532Z,2.74
2016-02-20T05:09:59.534Z,2.69
2016-02-20T05:10:59.522Z,2.77
2016-02-20T05:11:59.510Z,2.83
2016-02-20T05:12:59.512Z,2.79
2016-02-20T05:13:59.498Z,2.82
2016-02-20T05:14:59.518Z,2.87
2016-02-20T05:15:59.489Z,2.9
2016-02-20T05:16:59.492Z,2.87
2016-02-20T05:17:59.478Z,2.95
2016-02-20T05:18:59.481Z,2.93
2016-02-20T05:19:59.484Z,2.97
2016-02-20T05:20:59.486Z,2.93
2016-02-20T05:21:59.475Z,2.97
2016-02-20T05:22:59.461Z,2.87
2016-02-20T05:23:59.447Z,3.04
2016-02-20T05:24:59.451Z,3.05
2016-02-20T05:25:59.438Z,3
2016-02-20T05:26:59.441Z,3
2016-02-20T05:27:59.443Z,2.98
2016-02-20T05:28:59.430Z,2.98
2016-02-20T05:29:59.433Z,3.03
2016-02-20T05:30:59.419Z,3
2016-02-20T05:31:59.407Z,3.04
2016-02-20T05:32:59.410Z,2.95
2016-02-20T05:33:59.412Z,3.07
2016-02-20T05:34:59.415Z,3.13
2016-02-20T05:35:59.402Z,3.04
2016-02-20T05:36:59.404Z,3.04
2016-02-20T05:37:59.392Z,3.1
2016-02-20T05:38:59.395Z,3.11
2016-02-20T05:39:59.382Z,3.05
2016-02-20T05:40:59.368Z,3.11
2016-02-20T05:41:59.371Z,3.14
2016-02-20T05:42:59.374Z,3.13
2016-02-20T05:43:59.376Z,3.13
2016-02-20T05:44:59.395Z,3.14
2016-02-20T05:45:59.351Z,3.22
2016-02-20T05:46:59.353Z,3.23
2016-02-20T05:47:59.356Z,3.25
2016-02-20T05:48:59.358Z,3.32
2016-02-20T05:49:59.346Z,3.4
2016-02-20T05:50:59.348Z,3.42
2016-02-20T05:51:59.336Z,3.41
2016-02-20T05:52:59.323Z,3.36
2016-02-20T05:53:59.310Z,3.45
2016-02-20T05:54:59.313Z,3.45
2016-02-20T05:55:59.300Z,3.44
2016-02-20T05:56:59.319Z,3.36
2016-02-20T05:57:59.321Z,3.37
2016-02-20T05:58:59.307Z,3.42
2016-02-20T05:59:59.310Z,3.45
2016-02-20T06:00:59.282Z,3.45
2016-02-20T06:01:59.284Z,3.47
2016-02-20T06:02:59.272Z,3.5
2016-02-20T06:03:59.649Z,3.37
2016-02-20T06:04:59.277Z,3.42
2016-02-20T06:05:59.263Z,3.44
2016-02-20T06:06:59.282Z,3.53
2016-02-20T06:07:59.254Z,3.53
2016-02-20T06:08:59.256Z,3.51
2016-02-20T06:09:59.243Z,3.44
2016-02-20T06:10:59.246Z,3.48
2016-02-20T06:11:59.248Z,3.6
2016-02-20T06:12:59.237Z,3.6
2016-02-20T06:13:59.723Z,3.58
2016-02-20T06:14:59.226Z,3.59
2016-02-20T06:15:59.228Z,3.58
2016-02-20T06:16:59.215Z,3.6
2016-02-20T06:17:59.234Z,3.58
2016-02-20T06:18:59.205Z,3.59
2016-02-20T06:19:59.208Z,3.56
2016-02-20T06:20:59.211Z,3.6
2016-02-20T06:21:59.197Z,3.55
2016-02-20T06:22:59.200Z,3.55
2016-02-20T06:23:59.203Z,3.6
2016-02-20T06:24:59.190Z,3.65
2016-02-20T06:25:59.192Z,3.65
2016-02-20T06:26:59.180Z,3.63
2016-02-20T06:27:59.183Z,3.68
2016-02-20T06:28:59.169Z,3.76
2016-02-20T06:29:59.157Z,3.66
2016-02-20T06:30:59.175Z,3.62
2016-02-20T06:31:59.163Z,3.63
2016-02-20T06:32:59.165Z,3.7
2016-02-20T06:33:59.152Z,3.65
2016-02-20T06:34:59.154Z,3.62
2016-02-20T06:35:59.141Z,3.65
2016-02-20T06:36:59.128Z,3.66
2016-02-20T06:37:59.132Z,3.63
2016-02-20T06:38:59.118Z,3.56
2016-02-20T06:39:59.121Z,3.65
2016-02-20T06:40:59.123Z,3.63
2016-02-20T06:41:59.126Z,3.58
2016-02-20T06:42:59.113Z,3.56
2016-02-20T06:43:59.101Z,3.65
2016-02-20T06:44:59.104Z,3.63
2016-02-20T06:45:59.090Z,3.59
2016-02-20T06:46:59.092Z,3.63
2016-02-20T06:47:59.095Z,3.68
2016-02-20T06:48:59.098Z,3.63
2016-02-20T06:49:59.086Z,3.69
2016-02-20T06:50:59.088Z,3.65
2016-02-20T06:51:59.075Z,3.66
2016-02-20T06:52:59.062Z,3.66
2016-02-20T06:53:59.064Z,3.7
2016-02-20T06:54:59.068Z,3.74
2016-02-20T06:55:59.055Z,3.68
2016-02-20T06:56:59.073Z,3.68
2016-02-20T06:57:59.060Z,3.68
2016-02-20T06:58:59.047Z,3.74
2016-02-20T06:59:59.050Z,3.78
2016-02-20T07:00:59.036Z,3.76
2016-02-20T07:01:59.039Z,3.74
2016-02-20T07:02:59.042Z,3.81
2016-02-20T07:03:59.044Z,3.77
2016-02-20T07:04:58.876Z,3.83
2016-02-20T07:05:59.019Z,3.87
2016-02-20T07:06:59.021Z,3.95
2016-02-20T07:07:59.009Z,3.98
2016-02-20T07:08:59.026Z,3.98
2016-02-20T07:09:59.015Z,4.02
2016-02-20T07:10:59.001Z,4.04
2016-02-20T07:11:59.003Z,4.05
2016-02-20T07:12:58.991Z,4.1
2016-02-20T07:13:58.993Z,4.16
2016-02-20T07:14:58.996Z,4.2
2016-02-20T07:15:58.999Z,4.19
2016-02-20T07:16:58.970Z,4.14
2016-02-20T07:17:58.973Z,4.23
2016-02-20T07:18:58.975Z,4.19
2016-02-20T07:19:58.995Z,4.26
2016-02-20T07:20:58.981Z,4.28
2016-02-20T07:21:58.967Z,4.24
2016-02-20T07:22:58.955Z,4.23
2016-02-20T07:23:58.942Z,4.28
2016-02-20T07:24:58.945Z,4.23
2016-02-20T07:25:58.933Z,4.3
2016-02-20T07:26:58.935Z,4.28
2016-02-20T07:27:58.938Z,4.3
2016-02-20T07:28:58.940Z,4.26
2016-02-20T07:29:58.944Z,4.32
2016-02-20T07:30:58.930Z,4.34
2016-02-20T07:31:58.932Z,4.34
2016-02-20T07:32:58.919Z,4.34
2016-02-20T07:33:58.907Z,4.31
2016-02-20T07:34:58.925Z,4.35
2016-02-20T07:35:58.912Z,4.38
2016-02-20T07:36:58.884Z,4.32
2016-02-20T07:37:58.886Z,4.4
2016-02-20T07:38:58.888Z,4.35
2016-02-20T07:39:58.891Z,4.3
2016-02-20T07:40:58.894Z,4.32
2016-02-20T07:41:58.881Z,4.3
2016-02-20T07:42:58.884Z,4.32
2016-02-20T07:43:58.887Z,4.26
2016-02-20T07:44:58.874Z,4.24
2016-02-20T07:45:58.923Z,4.24
2016-02-20T07:46:58.864Z,4.17
2016-02-20T07:47:58.851Z,4.16
2016-02-20T07:48:58.853Z,4.19
2016-02-20T07:49:58.872Z,4.19
2016-02-20T07:50:58.890Z,4.16
2016-02-20T07:51:58.845Z,4.08
2016-02-20T07:52:58.848Z,4.1
2016-02-20T07:53:58.835Z,4.05
2016-02-20T07:54:58.839Z,3.95
2016-02-20T07:55:58.841Z,3.96
2016-02-20T07:56:58.828Z,3.94
2016-02-20T07:57:58.847Z,3.95
2016-02-20T07:58:58.817Z,3.94
2016-02-20T07:59:58.820Z,3.99
2016-02-20T08:00:58.807Z,4.02
2016-02-20T08:01:58.794Z,3.95
2016-02-20T08:02:58.797Z,3.91
2016-02-20T08:03:58.815Z,3.88
2016-02-20T08:04:58.803Z,3.87
2016-02-20T08:05:58.805Z,3.98
2016-02-20T08:06:58.777Z,3.91
2016-02-20T08:07:58.796Z,3.86
2016-02-20T08:08:58.766Z,3.95
2016-02-20T08:09:58.768Z,4.04
2016-02-20T08:10:58.772Z,3.95
2016-02-20T08:11:58.774Z,3.98
2016-02-20T08:12:58.777Z,3.86
2016-02-20T08:13:58.779Z,3.91
2016-02-20T08:14:58.751Z,3.96
2016-02-20T08:15:58.754Z,3.92
2016-02-20T08:16:58.740Z,3.98
2016-02-20T08:17:58.744Z,3.91
2016-02-20T08:18:58.746Z,3.83
2016-02-20T08:19:58.733Z,3.95
2016-02-20T08:20:58.751Z,3.98
2016-02-20T08:21:58.739Z,3.98
2016-02-20T08:22:58.742Z,3.88
2016-02-20T08:23:58.728Z,3.87
2016-02-20T08:24:58.731Z,3.81
2016-02-20T08:25:58.734Z,3.95
2016-02-20T08:26:58.721Z,3.95
2016-02-20T08:27:58.709Z,3.95
2016-02-20T08:28:58.711Z,3.95
2016-02-20T08:29:58.713Z,4.01
2016-02-20T08:30:58.700Z,3.95
2016-02-20T08:31:58.688Z,4.01
2016-02-20T08:32:58.691Z,3.98
2016-02-20T08:33:58.693Z,3.98
2016-02-20T08:34:58.696Z,3.99
2016-02-20T08:35:58.714Z,4.04
2016-02-20T08:36:58.669Z,4.05
2016-02-20T08:37:58.673Z,4.04
2016-02-20T08:38:58.689Z,4.01
2016-02-20T08:39:58.681Z,4.02
2016-02-20T08:40:58.642Z,3.94
2016-02-20T08:41:58.617Z,4.01
2016-02-20T08:42:58.608Z,4.06
2016-02-20T08:43:58.601Z,4.02
2016-02-20T08:44:58.599Z,4.04
2016-02-20T08:45:58.567Z,4.01
2016-02-20T08:46:58.565Z,4.04
2016-02-20T08:47:58.547Z,4.1
2016-02-20T08:48:58.546Z,4.1
2016-02-20T08:49:58.564Z,4.02
2016-02-20T08:50:58.549Z,4.13
2016-02-20T08:51:58.550Z,4.16
2016-02-20T08:52:58.536Z,4.17
2016-02-20T08:53:58.522Z,4.12
2016-02-20T08:54:58.508Z,4.24
2016-02-20T08:55:58.510Z,4.2
2016-02-20T08:56:58.513Z,4.26
2016-02-20T08:57:58.500Z,4.26
2016-02-20T08:58:58.502Z,4.31
2016-02-20T08:59:58.505Z,4.26
2016-02-20T09:00:58.491Z,4.31
2016-02-20T09:01:58.493Z,4.28
2016-02-20T09:02:58.496Z,4.3
2016-02-20T09:03:58.483Z,4.32
2016-02-20T09:04:58.486Z,4.3
2016-02-20T09:05:58.488Z,4.37
2016-02-20T09:06:58.475Z,4.38
2016-02-20T09:07:58.478Z,4.37
2016-02-20T09:08:58.481Z,4.44
2016-02-20T09:09:58.483Z,4.4
2016-02-20T09:10:58.470Z,4.38
2016-02-20T09:11:58.442Z,4.4
2016-02-20T09:12:58.444Z,4.48
2016-02-20T09:13:58.446Z,4.56
2016-02-20T09:14:58.450Z,4.5
2016-02-20T09:15:58.436Z,4.58
2016-02-20T09:16:58.439Z,4.52
2016-02-20T09:17:58.426Z,4.5
2016-02-20T09:18:58.429Z,4.48
2016-02-20T09:19:58.416Z,4.52
2016-02-20T09:20:58.418Z,4.49
2016-02-20T09:21:58.421Z,4.5
2016-02-20T09:22:58.424Z,4.63
2016-02-20T09:23:58.426Z,4.5
2016-02-20T09:24:58.430Z,4.58
2016-02-20T09:25:58.432Z,4.58
2016-02-20T09:26:58.403Z,4.6
2016-02-20T09:27:58.423Z,4.6
2016-02-20T09:28:58.393Z,4.59
2016-02-20T09:29:58.412Z,4.62
2016-02-20T09:30:58.384Z,4.7
2016-02-20T09:31:58.401Z,4.74
2016-02-20T09:32:58.389Z,4.68
2016-02-20T09:33:58.406Z,4.73
2016-02-20T09:34:58.378Z,4.74
2016-02-20T09:35:58.381Z,4.86
2016-02-20T09:36:58.368Z,4.8
2016-02-20T09:37:58.386Z,4.86
2016-02-20T09:38:58.373Z,4.86
2016-02-20T09:39:58.376Z,4.82
2016-02-20T09:40:58.347Z,4.82
2016-02-20T09:41:58.350Z,4.8
2016-02-20T09:42:58.353Z,4.75
2016-02-20T09:43:58.355Z,4.84
2016-02-20T09:44:58.343Z,4.86
2016-02-20T09:45:58.377Z,4.87
2016-02-20T09:46:58.332Z,5.04
2016-02-20T09:47:58.335Z,5
2016-02-20T09:48:58.338Z,4.99
2016-02-20T09:49:58.340Z,5.02
2016-02-20T09:50:58.327Z,5.04
2016-02-20T09:51:58.330Z,5.02
2016-02-20T09:52:58.333Z,5
2016-02-20T09:53:58.335Z,5.1
2016-02-20T09:54:58.338Z,5.08
2016-02-20T09:55:58.310Z,5
2016-02-20T09:56:58.312Z,4.99
2016-02-20T09:57:58.315Z,4.94
2016-02-20T09:58:58.302Z,5
2016-02-20T09:59:58.304Z,4.89
2016-02-20T10:00:58.324Z,4.9
2016-02-20T10:01:58.310Z,4.86
2016-02-20T10:02:58.298Z,4.93
2016-02-20T10:03:58.301Z,4.94
2016-02-20T10:04:58.287Z,4.94
2016-02-20T10:05:58.290Z,4.89
2016-02-20T10:06:58.292Z,4.94
2016-02-20T10:07:58.295Z,4.89
2016-02-20T10:08:58.282Z,4.93
2016-02-20T10:09:58.286Z,4.92
2016-02-20T10:10:58.288Z,4.87
2016-02-20T10:11:58.259Z,4.87
2016-02-20T10:12:58.106Z,4.99
2016-02-20T10:13:58.264Z,4.99
2016-02-20T10:14:58.252Z,4.96
2016-02-20T10:15:58.316Z,4.87
2016-02-20T10:16:58.257Z,4.89
2016-02-20T10:17:58.260Z,4.93
2016-02-20T10:18:58.263Z,4.8
2016-02-20T10:19:58.250Z,4.8
2016-02-20T10:20:58.283Z,4.97
2016-02-20T10:21:58.254Z,4.84
2016-02-20T10:22:58.258Z,4.82
2016-02-20T10:23:58.244Z,4.86
2016-02-20T10:24:58.262Z,4.74
2016-02-20T10:25:58.234Z,4.7
2016-02-20T10:26:58.221Z,4.75
2016-02-20T10:27:58.240Z,4.74
2016-02-20T10:28:58.227Z,4.8
2016-02-20T10:29:58.229Z,4.84
2016-02-20T10:30:58.076Z,4.87
2016-02-20T10:31:58.220Z,4.92
2016-02-20T10:32:58.206Z,4.94
2016-02-20T10:33:58.209Z,4.86
2016-02-20T10:34:58.211Z,4.82
2016-02-20T10:35:58.230Z,4.8
2016-02-20T10:36:58.311Z,4.93
2016-02-20T10:37:58.282Z,4.92
2016-02-20T10:38:58.191Z,4.82
2016-02-20T10:39:58.194Z,4.82
2016-02-20T10:40:58.181Z,4.9
2016-02-20T10:41:58.184Z,4.99
2016-02-20T10:42:58.170Z,4.8
2016-02-20T10:43:58.173Z,4.87
2016-02-20T10:44:58.176Z,4.75
2016-02-20T10:45:58.178Z,4.74
2016-02-20T10:46:58.166Z,4.75
2016-02-20T10:47:58.169Z,4.73
2016-02-20T10:48:58.171Z,4.82
2016-02-20T10:49:58.174Z,4.67
2016-02-20T10:50:58.161Z,4.73
2016-02-20T10:51:58.179Z,4.77
2016-02-20T10:52:58.166Z,4.75
2016-02-20T10:53:58.153Z,4.75
2016-02-20T10:54:58.156Z,4.75
2016-02-20T10:55:58.143Z,4.84
2016-02-20T10:56:58.146Z,4.77
2016-02-20T10:57:58.133Z,4.74
2016-02-20T10:58:58.135Z,4.75
2016-02-20T10:59:58.137Z,4.82
2016-02-20T11:00:58.140Z,4.8
2016-02-20T11:01:58.128Z,4.84
2016-02-20T11:02:58.131Z,4.78
2016-02-20T11:03:58.118Z,4.82
2016-02-20T11:04:58.137Z,4.84
2016-02-20T11:05:58.123Z,4.87
2016-02-20T11:06:58.126Z,4.93
2016-02-20T11:07:58.097Z,4.94
2016-02-20T11:08:58.100Z,4.96
2016-02-20T11:09:58.103Z,5.04
2016-02-20T11:10:58.089Z,5.04
2016-02-20T11:11:58.109Z,5.02
2016-02-20T11:12:58.095Z,4.93
2016-02-20T11:13:58.098Z,4.96
2016-02-20T11:14:58.117Z,4.96
2016-02-20T11:15:58.072Z,4.93
2016-02-20T11:16:58.091Z,4.89
2016-02-20T11:17:58.109Z,4.99
2016-02-20T11:18:58.158Z,4.9
2016-02-20T11:19:58.145Z,4.97
2016-02-20T11:20:58.117Z,4.94
2016-02-20T11:21:58.057Z,4.96
2016-02-20T11:22:58.075Z,4.96
2016-02-20T11:23:58.063Z,4.96
2016-02-20T11:24:58.065Z,5.02
2016-02-20T11:25:58.099Z,5.02
2016-02-20T11:26:58.055Z,5.11
2016-02-20T11:27:58.073Z,5.05
2016-02-20T11:28:58.091Z,5.05
2016-02-20T11:29:58.047Z,5.04
2016-02-20T11:30:58.050Z,4.99
2016-02-20T11:31:58.052Z,4.97
2016-02-20T11:32:58.040Z,4.94
2016-02-20T11:33:58.043Z,4.96
2016-02-20T11:34:58.060Z,4.89
2016-02-20T11:35:58.047Z,4.93
2016-02-20T11:36:58.034Z,4.96
2016-02-20T11:37:58.053Z,4.99
2016-02-20T11:38:58.025Z,4.89
2016-02-20T11:39:58.028Z,4.86
2016-02-20T11:40:58.015Z,4.93
2016-02-20T11:41:58.017Z,4.87
2016-02-20T11:42:58.004Z,4.78
2016-02-20T11:43:58.007Z,4.87
2016-02-20T11:44:58.025Z,4.87
2016-02-20T11:45:57.996Z,4.84
2016-02-20T11:46:58.014Z,4.96
2016-02-20T11:47:57.986Z,5.04
2016-02-20T11:48:57.989Z,4.96
2016-02-20T11:49:58.008Z,4.94
2016-02-20T11:50:57.994Z,4.99
2016-02-20T11:51:58.013Z,4.97
2016-02-20T11:52:57.969Z,4.97
2016-02-20T11:53:57.971Z,5.02
2016-02-20T11:54:57.989Z,4.96
2016-02-20T11:55:57.991Z,4.99
2016-02-20T11:56:57.979Z,5.11
2016-02-20T11:57:57.966Z,5.12
2016-02-20T11:58:58.015Z,5.14
2016-02-20T11:59:57.971Z,5.08
2016-02-20T12:00:57.990Z,5.07
2016-02-20T12:01:57.993Z,5.12
2016-02-20T12:02:57.979Z,5.12
2016-02-20T12:03:57.951Z,5.1
2016-02-20T12:04:57.954Z,5.02
2016-02-20T12:05:57.941Z,5.14
2016-02-20T12:06:57.944Z,5.15
2016-02-20T12:07:57.978Z,5.08
2016-02-20T12:08:57.949Z,5.17
2016-02-20T12:09:57.937Z,5.11
2016-02-20T12:10:57.923Z,5.12
2016-02-20T12:11:57.925Z,5.12
2016-02-20T12:12:57.959Z,5.12
2016-02-20T12:13:57.947Z,5.15
2016-02-20T12:14:57.903Z,5.18
2016-02-20T12:15:57.920Z,5.14
2016-02-20T12:16:57.909Z,5.15
2016-02-20T12:17:57.925Z,5.11
2016-02-20T12:18:57.898Z,5.18
2016-02-20T12:19:57.900Z,5.2
2016-02-20T12:20:57.918Z,5.17
2016-02-20T12:21:57.905Z,5.17
2016-02-20T12:22:57.908Z,5.15
2016-02-20T12:23:57.896Z,5.26
2016-02-20T12:24:57.899Z,5.25
2016-02-20T12:25:57.902Z,5.3
2016-02-20T12:26:57.888Z,5.23
2016-02-20T12:27:57.891Z,5.33
2016-02-20T12:28:57.877Z,5.36
2016-02-20T12:29:57.896Z,5.3
2016-02-20T12:30:57.914Z,5.26
2016-02-20T12:31:57.870Z,5.29
2016-02-20T12:32:57.888Z,5.26
2016-02-20T12:33:57.860Z,5.33
2016-02-20T12:34:57.879Z,5.3
2016-02-20T12:35:57.866Z,5.3
2016-02-20T12:36:57.868Z,5.38
2016-02-20T12:37:57.887Z,5.29
2016-02-20T12:38:57.874Z,5.26
2016-02-20T12:39:57.876Z,5.29
2016-02-20T12:40:57.863Z,5.32
2016-02-20T12:41:57.850Z,5.26
2016-02-20T12:42:57.853Z,5.36
2016-02-20T12:43:57.840Z,5.28
2016-02-20T12:44:57.859Z,5.32
2016-02-20T12:45:57.845Z,5.28
2016-02-20T12:46:57.833Z,5.28
2016-02-20T12:47:57.850Z,5.29
2016-02-20T12:48:57.838Z,5.38
2016-02-20T12:49:57.841Z,5.29
2016-02-20T12:50:57.828Z,5.28
2016-02-20T12:51:57.830Z,5.28
2016-02-20T12:52:57.849Z,5.29
2016-02-20T12:53:57.836Z,5.25
2016-02-20T12:54:57.838Z,5.25
2016-02-20T12:55:57.810Z,5.25
2016-02-20T12:56:57.828Z,5.29
2016-02-20T12:57:57.847Z,5.28
2016-02-20T12:58:57.802Z,5.3
2016-02-20T12:59:57.851Z,5.28
2016-02-20T13:00:57.808Z,5.25
2016-02-20T13:01:57.826Z,5.25
2016-02-20T13:02:57.797Z,5.26
2016-02-20T13:03:57.800Z,5.3
2016-02-20T13:04:57.834Z,5.28
2016-02-20T13:05:57.790Z,5.38
2016-02-20T13:06:57.808Z,5.29
2016-02-20T13:07:57.779Z,5.38
2016-02-20T13:08:57.829Z,5.35
2016-02-20T13:09:57.801Z,5.26
2016-02-20T13:10:57.772Z,5.29
2016-02-20T13:11:57.790Z,5.36
2016-02-20T13:12:57.792Z,5.28
2016-02-20T13:13:57.780Z,5.29
2016-02-20T13:14:57.798Z,5.3
2016-02-20T13:15:57.770Z,5.33
2016-02-20T13:16:57.789Z,5.44
2016-02-20T13:17:57.759Z,5.32
2016-02-20T13:18:57.762Z,5.39
2016-02-20T13:19:57.750Z,5.39
2016-02-20T13:20:57.753Z,5.46
2016-02-20T13:21:57.770Z,5.46